sensor_id;sensor_type;location;lat;lon;timestamp;pressure;altitude;pressure_sealevel;temperature
34023;BMP280;20673;48.980;8.138;2023-05-07T00:00:53;99934.04;;;14.07
34023;BMP280;20673;48.980;8.138;2023-05-07T00:03:19;99931.42;;;14.17
34023;BMP280;20673;48.980;8.138;2023-05-07T00:05:46;99929.42;;;14.25
34023;BMP280;20673;48.980;8.138;2023-05-07T00:08:12;99928.50;;;14.31
34023;BMP280;20673;48.980;8.138;2023-05-07T00:10:38;99932.50;;;14.35
34023;BMP280;20673;48.980;8.138;2023-05-07T00:13:04;99936.15;;;14.40
34023;BMP280;20673;48.980;8.138;2023-05-07T00:15:30;99939.66;;;14.42
34023;BMP280;20673;48.980;8.138;2023-05-07T00:17:56;99933.00;;;14.44
34023;BMP280;20673;48.980;8.138;2023-05-07T00:20:25;99936.50;;;14.47
34023;BMP280;20673;48.980;8.138;2023-05-07T00:22:51;99931.56;;;14.47
34023;BMP280;20673;48.980;8.138;2023-05-07T00:25:18;99933.13;;;14.44
34023;BMP280;20673;48.980;8.138;2023-05-07T00:27:45;99938.28;;;14.42
34023;BMP280;20673;48.980;8.138;2023-05-07T00:30:12;99934.62;;;14.45
34023;BMP280;20673;48.980;8.138;2023-05-07T00:32:38;99927.90;;;14.46
34023;BMP280;20673;48.980;8.138;2023-05-07T00:35:06;99928.32;;;14.45
34023;BMP280;20673;48.980;8.138;2023-05-07T00:37:33;99925.97;;;14.47
34023;BMP280;20673;48.980;8.138;2023-05-07T00:39:59;99920.07;;;14.47
34023;BMP280;20673;48.980;8.138;2023-05-07T00:42:25;99921.96;;;14.44
34023;BMP280;20673;48.980;8.138;2023-05-07T00:44:51;99923.13;;;14.44
34023;BMP280;20673;48.980;8.138;2023-05-07T00:47:17;99919.23;;;14.41
34023;BMP280;20673;48.980;8.138;2023-05-07T00:49:44;99918.98;;;14.40
34023;BMP280;20673;48.980;8.138;2023-05-07T00:52:15;99922.40;;;14.41
34023;BMP280;20673;48.980;8.138;2023-05-07T00:54:43;99925.83;;;14.42
34023;BMP280;20673;48.980;8.138;2023-05-07T00:57:10;99922.78;;;14.40
34023;BMP280;20673;48.980;8.138;2023-05-07T00:59:39;99924.37;;;14.39
34023;BMP280;20673;48.980;8.138;2023-05-07T01:02:07;99921.22;;;14.34
34023;BMP280;20673;48.980;8.138;2023-05-07T01:04:33;99920.73;;;14.32
34023;BMP280;20673;48.980;8.138;2023-05-07T01:07:01;99919.23;;;14.30
34023;BMP280;20673;48.980;8.138;2023-05-07T01:09:29;99918.94;;;14.30
34023;BMP280;20673;48.980;8.138;2023-05-07T01:11:58;99919.70;;;14.30
34023;BMP280;20673;48.980;8.138;2023-05-07T01:14:26;99919.29;;;14.27
34023;BMP280;20673;48.980;8.138;2023-05-07T01:16:53;99921.79;;;14.28
34023;BMP280;20673;48.980;8.138;2023-05-07T01:19:20;99920.79;;;14.29
34023;BMP280;20673;48.980;8.138;2023-05-07T01:21:48;99917.86;;;14.30
34023;BMP280;20673;48.980;8.138;2023-05-07T01:24:15;99920.75;;;14.35
34023;BMP280;20673;48.980;8.138;2023-05-07T01:26:43;99919.23;;;14.38
34023;BMP280;20673;48.980;8.138;2023-05-07T01:29:12;99912.12;;;14.40
34023;BMP280;20673;48.980;8.138;2023-05-07T01:31:41;99911.42;;;14.40
34023;BMP280;20673;48.980;8.138;2023-05-07T01:34:11;99910.79;;;14.40
34023;BMP280;20673;48.980;8.138;2023-05-07T01:36:41;99909.40;;;14.40
34023;BMP280;20673;48.980;8.138;2023-05-07T01:39:10;99909.11;;;14.39
34023;BMP280;20673;48.980;8.138;2023-05-07T01:41:37;99917.68;;;14.39
34023;BMP280;20673;48.980;8.138;2023-05-07T01:44:04;99914.40;;;14.36
34023;BMP280;20673;48.980;8.138;2023-05-07T01:46:33;99915.26;;;14.33
34023;BMP280;20673;48.980;8.138;2023-05-07T01:49:02;99914.90;;;14.35
34023;BMP280;20673;48.980;8.138;2023-05-07T01:51:30;99914.84;;;14.33
34023;BMP280;20673;48.980;8.138;2023-05-07T01:53:57;99912.79;;;14.32
34023;BMP280;20673;48.980;8.138;2023-05-07T01:56:25;99912.81;;;14.28
34023;BMP280;20673;48.980;8.138;2023-05-07T01:58:52;99912.46;;;14.24
34023;BMP280;20673;48.980;8.138;2023-05-07T02:01:19;99911.50;;;14.23
34023;BMP280;20673;48.980;8.138;2023-05-07T02:03:47;99912.31;;;14.18
34023;BMP280;20673;48.980;8.138;2023-05-07T02:06:13;99917.72;;;14.16
34023;BMP280;20673;48.980;8.138;2023-05-07T02:08:40;99919.76;;;14.15
34023;BMP280;20673;48.980;8.138;2023-05-07T02:11:06;99925.08;;;14.14
34023;BMP280;20673;48.980;8.138;2023-05-07T02:13:34;99931.80;;;14.14
34023;BMP280;20673;48.980;8.138;2023-05-07T02:16:02;99931.31;;;14.10
34023;BMP280;20673;48.980;8.138;2023-05-07T02:18:29;99922.79;;;14.09
34023;BMP280;20673;48.980;8.138;2023-05-07T02:20:55;99928.67;;;14.04
34023;BMP280;20673;48.980;8.138;2023-05-07T02:23:22;99928.88;;;14.02
34023;BMP280;20673;48.980;8.138;2023-05-07T02:25:48;99931.90;;;13.98
34023;BMP280;20673;48.980;8.138;2023-05-07T02:28:14;99937.84;;;13.95
34023;BMP280;20673;48.980;8.138;2023-05-07T02:30:41;99937.68;;;13.92
34023;BMP280;20673;48.980;8.138;2023-05-07T02:33:07;99937.34;;;13.85
34023;BMP280;20673;48.980;8.138;2023-05-07T02:35:34;99933.35;;;13.79
34023;BMP280;20673;48.980;8.138;2023-05-07T02:38:00;99928.53;;;13.72
34023;BMP280;20673;48.980;8.138;2023-05-07T02:40:27;99925.08;;;13.67
34023;BMP280;20673;48.980;8.138;2023-05-07T02:42:53;99923.66;;;13.63
34023;BMP280;20673;48.980;8.138;2023-05-07T02:45:19;99920.45;;;13.61
34023;BMP280;20673;48.980;8.138;2023-05-07T02:47:45;99916.40;;;13.62
34023;BMP280;20673;48.980;8.138;2023-05-07T02:50:12;99913.09;;;13.64
34023;BMP280;20673;48.980;8.138;2023-05-07T02:52:38;99910.97;;;13.63
34023;BMP280;20673;48.980;8.138;2023-05-07T02:55:06;99912.89;;;13.65
34023;BMP280;20673;48.980;8.138;2023-05-07T02:57:32;99907.66;;;13.65
34023;BMP280;20673;48.980;8.138;2023-05-07T02:59:58;99905.97;;;13.63
34023;BMP280;20673;48.980;8.138;2023-05-07T03:02:25;99910.72;;;13.63
34023;BMP280;20673;48.980;8.138;2023-05-07T03:04:51;99915.44;;;13.61
34023;BMP280;20673;48.980;8.138;2023-05-07T03:07:17;99912.77;;;13.59
34023;BMP280;20673;48.980;8.138;2023-05-07T03:09:43;99911.73;;;13.55
34023;BMP280;20673;48.980;8.138;2023-05-07T03:12:09;99911.74;;;13.51
34023;BMP280;20673;48.980;8.138;2023-05-07T03:14:35;99907.83;;;13.48
34023;BMP280;20673;48.980;8.138;2023-05-07T03:17:01;99902.53;;;13.46
34023;BMP280;20673;48.980;8.138;2023-05-07T03:19:28;99907.04;;;13.43
34023;BMP280;20673;48.980;8.138;2023-05-07T03:21:56;99910.22;;;13.41
34023;BMP280;20673;48.980;8.138;2023-05-07T03:24:22;99911.22;;;13.38
34023;BMP280;20673;48.980;8.138;2023-05-07T03:26:48;99910.30;;;13.33
34023;BMP280;20673;48.980;8.138;2023-05-07T03:29:15;99915.61;;;13.28
34023;BMP280;20673;48.980;8.138;2023-05-07T03:31:41;99914.74;;;13.24
34023;BMP280;20673;48.980;8.138;2023-05-07T03:34:07;99913.83;;;13.18
34023;BMP280;20673;48.980;8.138;2023-05-07T03:36:34;99916.58;;;13.21
34023;BMP280;20673;48.980;8.138;2023-05-07T03:39:00;99916.78;;;13.19
34023;BMP280;20673;48.980;8.138;2023-05-07T03:41:26;99916.24;;;13.10
34023;BMP280;20673;48.980;8.138;2023-05-07T03:43:52;99914.16;;;13.03
34023;BMP280;20673;48.980;8.138;2023-05-07T03:46:19;99913.24;;;12.92
34023;BMP280;20673;48.980;8.138;2023-05-07T03:48:45;99916.11;;;12.83
34023;BMP280;20673;48.980;8.138;2023-05-07T03:51:11;99917.80;;;12.78
34023;BMP280;20673;48.980;8.138;2023-05-07T03:53:37;99922.35;;;12.73
34023;BMP280;20673;48.980;8.138;2023-05-07T03:56:04;99932.77;;;12.67
34023;BMP280;20673;48.980;8.138;2023-05-07T03:58:30;99927.54;;;12.65
34023;BMP280;20673;48.980;8.138;2023-05-07T04:00:56;99931.97;;;12.64
34023;BMP280;20673;48.980;8.138;2023-05-07T04:03:22;99932.53;;;12.58
34023;BMP280;20673;48.980;8.138;2023-05-07T04:05:48;99932.50;;;12.63
34023;BMP280;20673;48.980;8.138;2023-05-07T04:08:14;99939.75;;;12.56
34023;BMP280;20673;48.980;8.138;2023-05-07T04:10:41;99934.15;;;12.53
34023;BMP280;20673;48.980;8.138;2023-05-07T04:13:07;99935.89;;;12.51
34023;BMP280;20673;48.980;8.138;2023-05-07T04:15:33;99933.09;;;12.44
34023;BMP280;20673;48.980;8.138;2023-05-07T04:17:59;99930.47;;;12.46
34023;BMP280;20673;48.980;8.138;2023-05-07T04:20:26;99931.36;;;12.55
34023;BMP280;20673;48.980;8.138;2023-05-07T04:22:52;99930.36;;;12.58
34023;BMP280;20673;48.980;8.138;2023-05-07T04:25:18;99929.50;;;12.61
34023;BMP280;20673;48.980;8.138;2023-05-07T04:27:44;99934.84;;;12.59
34023;BMP280;20673;48.980;8.138;2023-05-07T04:30:12;99939.14;;;12.62
34023;BMP280;20673;48.980;8.138;2023-05-07T04:32:38;99942.29;;;12.61
34023;BMP280;20673;48.980;8.138;2023-05-07T04:35:06;99943.43;;;12.65
34023;BMP280;20673;48.980;8.138;2023-05-07T04:37:32;99940.02;;;12.68
34023;BMP280;20673;48.980;8.138;2023-05-07T04:39:59;99941.78;;;12.76
34023;BMP280;20673;48.980;8.138;2023-05-07T04:42:26;99941.86;;;12.78
34023;BMP280;20673;48.980;8.138;2023-05-07T04:44:53;99940.42;;;12.86
34023;BMP280;20673;48.980;8.138;2023-05-07T04:47:20;99943.92;;;12.91
34023;BMP280;20673;48.980;8.138;2023-05-07T04:49:47;99943.60;;;13.02
34023;BMP280;20673;48.980;8.138;2023-05-07T04:52:13;99946.73;;;13.11
34023;BMP280;20673;48.980;8.138;2023-05-07T04:54:39;99947.44;;;13.20
34023;BMP280;20673;48.980;8.138;2023-05-07T04:57:05;99951.15;;;13.31
34023;BMP280;20673;48.980;8.138;2023-05-07T04:59:32;99954.20;;;13.41
34023;BMP280;20673;48.980;8.138;2023-05-07T05:01:59;99956.49;;;13.49
34023;BMP280;20673;48.980;8.138;2023-05-07T05:04:25;99950.39;;;13.57
34023;BMP280;20673;48.980;8.138;2023-05-07T05:06:51;99958.89;;;13.67
34023;BMP280;20673;48.980;8.138;2023-05-07T05:09:17;99959.16;;;13.77
34023;BMP280;20673;48.980;8.138;2023-05-07T05:11:44;99963.03;;;13.86
34023;BMP280;20673;48.980;8.138;2023-05-07T05:14:10;99962.65;;;13.94
34023;BMP280;20673;48.980;8.138;2023-05-07T05:16:36;99967.18;;;14.01
34023;BMP280;20673;48.980;8.138;2023-05-07T05:19:03;99973.59;;;14.12
34023;BMP280;20673;48.980;8.138;2023-05-07T05:21:29;99973.86;;;14.19
34023;BMP280;20673;48.980;8.138;2023-05-07T05:23:55;99978.18;;;14.26
34023;BMP280;20673;48.980;8.138;2023-05-07T05:26:22;99976.83;;;14.39
34023;BMP280;20673;48.980;8.138;2023-05-07T05:28:48;99977.45;;;14.50
34023;BMP280;20673;48.980;8.138;2023-05-07T05:31:16;99978.70;;;14.59
34023;BMP280;20673;48.980;8.138;2023-05-07T05:33:42;99974.51;;;14.68
34023;BMP280;20673;48.980;8.138;2023-05-07T05:36:11;99976.83;;;14.81
34023;BMP280;20673;48.980;8.138;2023-05-07T05:38:39;99979.29;;;14.95
34023;BMP280;20673;48.980;8.138;2023-05-07T05:41:06;99983.59;;;15.08
34023;BMP280;20673;48.980;8.138;2023-05-07T05:43:32;99978.39;;;15.19
34023;BMP280;20673;48.980;8.138;2023-05-07T05:45:58;99977.45;;;15.28
34023;BMP280;20673;48.980;8.138;2023-05-07T05:48:25;99980.81;;;15.32
34023;BMP280;20673;48.980;8.138;2023-05-07T05:50:51;99979.00;;;15.42
34023;BMP280;20673;48.980;8.138;2023-05-07T05:53:17;99977.54;;;15.51
34023;BMP280;20673;48.980;8.138;2023-05-07T05:55:44;99978.76;;;15.60
34023;BMP280;20673;48.980;8.138;2023-05-07T05:58:10;99976.40;;;15.70
34023;BMP280;20673;48.980;8.138;2023-05-07T06:00:36;99981.99;;;15.78
34023;BMP280;20673;48.980;8.138;2023-05-07T06:03:03;99974.56;;;15.83
34023;BMP280;20673;48.980;8.138;2023-05-07T06:05:29;99976.64;;;15.93
34023;BMP280;20673;48.980;8.138;2023-05-07T06:07:55;99971.86;;;16.01
34023;BMP280;20673;48.980;8.138;2023-05-07T06:10:22;99970.79;;;16.02
34023;BMP280;20673;48.980;8.138;2023-05-07T06:12:48;99975.08;;;16.08
34023;BMP280;20673;48.980;8.138;2023-05-07T06:15:14;99977.50;;;16.16
34023;BMP280;20673;48.980;8.138;2023-05-07T06:17:40;99975.91;;;16.19
34023;BMP280;20673;48.980;8.138;2023-05-07T06:20:08;99977.36;;;16.25
34023;BMP280;20673;48.980;8.138;2023-05-07T06:22:34;99973.11;;;16.29
34023;BMP280;20673;48.980;8.138;2023-05-07T06:25:00;99978.22;;;16.36
34023;BMP280;20673;48.980;8.138;2023-05-07T06:27:26;99979.50;;;16.42
34023;BMP280;20673;48.980;8.138;2023-05-07T06:29:53;99978.15;;;16.52
34023;BMP280;20673;48.980;8.138;2023-05-07T06:32:20;99978.36;;;16.55
34023;BMP280;20673;48.980;8.138;2023-05-07T06:34:46;99986.86;;;16.63
34023;BMP280;20673;48.980;8.138;2023-05-07T06:37:12;100006.25;;;16.62
34023;BMP280;20673;48.980;8.138;2023-05-07T06:39:38;100010.70;;;16.68
34023;BMP280;20673;48.980;8.138;2023-05-07T06:42:05;100006.88;;;16.83
34023;BMP280;20673;48.980;8.138;2023-05-07T06:44:31;100011.93;;;16.94
34023;BMP280;20673;48.980;8.138;2023-05-07T06:46:58;100014.61;;;16.95
34023;BMP280;20673;48.980;8.138;2023-05-07T06:49:24;100015.93;;;17.02
34023;BMP280;20673;48.980;8.138;2023-05-07T06:51:50;100016.40;;;17.16
34023;BMP280;20673;48.980;8.138;2023-05-07T06:54:17;100005.70;;;17.18
34023;BMP280;20673;48.980;8.138;2023-05-07T06:56:43;100003.23;;;17.38
34023;BMP280;20673;48.980;8.138;2023-05-07T06:59:09;99999.86;;;17.39
34023;BMP280;20673;48.980;8.138;2023-05-07T07:01:35;99997.97;;;17.45
34023;BMP280;20673;48.980;8.138;2023-05-07T07:04:01;100002.72;;;17.54
34023;BMP280;20673;48.980;8.138;2023-05-07T07:06:28;100010.11;;;17.64
34023;BMP280;20673;48.980;8.138;2023-05-07T07:08:54;100012.61;;;17.68
34023;BMP280;20673;48.980;8.138;2023-05-07T07:11:20;100019.55;;;17.77
34023;BMP280;20673;48.980;8.138;2023-05-07T07:13:46;100020.90;;;17.74
34023;BMP280;20673;48.980;8.138;2023-05-07T07:16:12;100030.01;;;17.87
34023;BMP280;20673;48.980;8.138;2023-05-07T07:18:38;100032.58;;;17.75
34023;BMP280;20673;48.980;8.138;2023-05-07T07:21:05;100045.33;;;17.81
34023;BMP280;20673;48.980;8.138;2023-05-07T07:23:32;100044.25;;;17.83
34023;BMP280;20673;48.980;8.138;2023-05-07T07:25:58;100040.59;;;17.90
34023;BMP280;20673;48.980;8.138;2023-05-07T07:28:24;100036.92;;;17.91
34023;BMP280;20673;48.980;8.138;2023-05-07T07:30:51;100026.66;;;17.97
34023;BMP280;20673;48.980;8.138;2023-05-07T07:33:17;100013.97;;;18.06
34023;BMP280;20673;48.980;8.138;2023-05-07T07:35:43;100008.85;;;18.28
34023;BMP280;20673;48.980;8.138;2023-05-07T07:38:10;100008.68;;;18.50
34023;BMP280;20673;48.980;8.138;2023-05-07T07:40:36;100012.26;;;18.78
34023;BMP280;20673;48.980;8.138;2023-05-07T07:43:03;100028.39;;;18.87
34023;BMP280;20673;48.980;8.138;2023-05-07T07:45:29;100026.47;;;19.18
34023;BMP280;20673;48.980;8.138;2023-05-07T07:47:55;100019.14;;;19.48
34023;BMP280;20673;48.980;8.138;2023-05-07T07:50:21;100019.19;;;19.59
34023;BMP280;20673;48.980;8.138;2023-05-07T07:52:48;100033.70;;;19.78
34023;BMP280;20673;48.980;8.138;2023-05-07T07:55:14;100032.03;;;19.98
34023;BMP280;20673;48.980;8.138;2023-05-07T07:57:43;100024.04;;;20.15
34023;BMP280;20673;48.980;8.138;2023-05-07T08:00:10;100023.26;;;20.28
34023;BMP280;20673;48.980;8.138;2023-05-07T08:02:36;100029.90;;;20.15
34023;BMP280;20673;48.980;8.138;2023-05-07T08:05:03;100026.54;;;20.04
34023;BMP280;20673;48.980;8.138;2023-05-07T08:07:29;100022.39;;;20.12
34023;BMP280;20673;48.980;8.138;2023-05-07T08:09:56;100027.26;;;20.16
34023;BMP280;20673;48.980;8.138;2023-05-07T08:12:22;100033.60;;;19.98
34023;BMP280;20673;48.980;8.138;2023-05-07T08:14:48;100030.39;;;20.14
34023;BMP280;20673;48.980;8.138;2023-05-07T08:17:14;100030.25;;;20.18
34023;BMP280;20673;48.980;8.138;2023-05-07T08:19:42;100042.25;;;20.11
34023;BMP280;20673;48.980;8.138;2023-05-07T08:22:09;100051.36;;;20.12
34023;BMP280;20673;48.980;8.138;2023-05-07T08:24:36;100033.73;;;20.48
34023;BMP280;20673;48.980;8.138;2023-05-07T08:27:03;100028.26;;;20.85
34023;BMP280;20673;48.980;8.138;2023-05-07T08:29:29;100036.09;;;20.86
34023;BMP280;20673;48.980;8.138;2023-05-07T08:31:55;100037.57;;;20.93
34023;BMP280;20673;48.980;8.138;2023-05-07T08:34:22;100037.89;;;21.35
34023;BMP280;20673;48.980;8.138;2023-05-07T08:36:48;100034.53;;;21.59
34023;BMP280;20673;48.980;8.138;2023-05-07T08:39:17;100037.83;;;21.54
34023;BMP280;20673;48.980;8.138;2023-05-07T08:41:49;100031.98;;;21.82
34023;BMP280;20673;48.980;8.138;2023-05-07T08:44:19;100034.90;;;21.84
34023;BMP280;20673;48.980;8.138;2023-05-07T08:46:48;100031.92;;;21.80
34023;BMP280;20673;48.980;8.138;2023-05-07T08:49:17;100037.44;;;22.07
34023;BMP280;20673;48.980;8.138;2023-05-07T08:51:43;100037.72;;;22.27
34023;BMP280;20673;48.980;8.138;2023-05-07T08:54:11;100036.99;;;21.97
34023;BMP280;20673;48.980;8.138;2023-05-07T08:56:38;100037.68;;;22.14
34023;BMP280;20673;48.980;8.138;2023-05-07T08:59:05;100038.90;;;22.50
34023;BMP280;20673;48.980;8.138;2023-05-07T09:01:32;100039.34;;;22.36
34023;BMP280;20673;48.980;8.138;2023-05-07T09:04:00;100035.47;;;22.45
34023;BMP280;20673;48.980;8.138;2023-05-07T09:06:27;100033.56;;;22.38
34023;BMP280;20673;48.980;8.138;2023-05-07T09:08:54;100036.09;;;22.44
34023;BMP280;20673;48.980;8.138;2023-05-07T09:11:22;100035.23;;;22.60
34023;BMP280;20673;48.980;8.138;2023-05-07T09:13:54;100035.59;;;22.94
34023;BMP280;20673;48.980;8.138;2023-05-07T09:16:22;100031.37;;;22.81
34023;BMP280;20673;48.980;8.138;2023-05-07T09:18:54;100028.04;;;23.12
34023;BMP280;20673;48.980;8.138;2023-05-07T09:21:21;100020.75;;;23.28
34023;BMP280;20673;48.980;8.138;2023-05-07T09:23:51;100021.56;;;23.57
34023;BMP280;20673;48.980;8.138;2023-05-07T09:26:18;100030.29;;;23.67
34023;BMP280;20673;48.980;8.138;2023-05-07T09:28:44;100029.79;;;23.95
34023;BMP280;20673;48.980;8.138;2023-05-07T09:31:12;100026.33;;;24.06
34023;BMP280;20673;48.980;8.138;2023-05-07T09:33:39;100028.76;;;23.93
34023;BMP280;20673;48.980;8.138;2023-05-07T09:36:08;100023.25;;;23.89
34023;BMP280;20673;48.980;8.138;2023-05-07T09:38:36;100027.63;;;24.42
34023;BMP280;20673;48.980;8.138;2023-05-07T09:41:12;100028.13;;;24.55
34023;BMP280;20673;48.980;8.138;2023-05-07T09:43:40;100027.57;;;24.83
34023;BMP280;20673;48.980;8.138;2023-05-07T09:46:14;100028.37;;;24.60
34023;BMP280;20673;48.980;8.138;2023-05-07T09:48:43;100022.67;;;24.43
34023;BMP280;20673;48.980;8.138;2023-05-07T09:51:45;100019.43;;;24.46
34023;BMP280;20673;48.980;8.138;2023-05-07T09:54:12;100018.53;;;24.78
34023;BMP280;20673;48.980;8.138;2023-05-07T09:56:39;100020.33;;;25.03
34023;BMP280;20673;48.980;8.138;2023-05-07T09:59:13;100016.42;;;25.55
34023;BMP280;20673;48.980;8.138;2023-05-07T10:01:42;100016.84;;;25.75
34023;BMP280;20673;48.980;8.138;2023-05-07T10:04:10;100018.20;;;25.57
34023;BMP280;20673;48.980;8.138;2023-05-07T10:06:37;100018.36;;;25.57
34023;BMP280;20673;48.980;8.138;2023-05-07T10:09:05;100018.20;;;25.71
34023;BMP280;20673;48.980;8.138;2023-05-07T10:11:35;100017.29;;;25.77
34023;BMP280;20673;48.980;8.138;2023-05-07T10:14:03;100016.75;;;25.62
34023;BMP280;20673;48.980;8.138;2023-05-07T10:16:34;100017.40;;;25.81
34023;BMP280;20673;48.980;8.138;2023-05-07T10:19:04;100011.17;;;26.15
34023;BMP280;20673;48.980;8.138;2023-05-07T10:21:39;100021.93;;;26.08
34023;BMP280;20673;48.980;8.138;2023-05-07T10:24:16;100009.09;;;26.31
34023;BMP280;20673;48.980;8.138;2023-05-07T10:26:48;100006.29;;;26.03
34023;BMP280;20673;48.980;8.138;2023-05-07T10:29:29;100008.68;;;26.05
34023;BMP280;20673;48.980;8.138;2023-05-07T10:32:38;100002.21;;;26.17
34023;BMP280;20673;48.980;8.138;2023-05-07T10:35:14;100008.92;;;26.35
34023;BMP280;20673;48.980;8.138;2023-05-07T10:37:36;99998.48;;;26.42
34023;BMP280;20673;48.980;8.138;2023-05-07T10:40:03;99999.78;;;26.38
34023;BMP280;20673;48.980;8.138;2023-05-07T10:42:30;99996.42;;;26.23
34023;BMP280;20673;48.980;8.138;2023-05-07T10:44:57;100007.15;;;26.25
34023;BMP280;20673;48.980;8.138;2023-05-07T10:47:23;99994.86;;;26.69
34023;BMP280;20673;48.980;8.138;2023-05-07T10:52:33;100007.72;;;26.81
34023;BMP280;20673;48.980;8.138;2023-05-07T10:55:19;99996.53;;;26.82
34023;BMP280;20673;48.980;8.138;2023-05-07T10:57:47;99987.87;;;27.00
34023;BMP280;20673;48.980;8.138;2023-05-07T11:03:06;99986.25;;;26.88
34023;BMP280;20673;48.980;8.138;2023-05-07T11:05:33;99987.56;;;27.34
34023;BMP280;20673;48.980;8.138;2023-05-07T11:08:02;99982.47;;;28.01
34023;BMP280;20673;48.980;8.138;2023-05-07T11:10:56;99984.37;;;28.16
34023;BMP280;20673;48.980;8.138;2023-05-07T11:13:44;99973.01;;;28.24
34023;BMP280;20673;48.980;8.138;2023-05-07T11:16:23;99989.31;;;28.01
34023;BMP280;20673;48.980;8.138;2023-05-07T11:18:52;99988.43;;;28.54
34023;BMP280;20673;48.980;8.138;2023-05-07T11:21:40;99986.68;;;28.36
34023;BMP280;20673;48.980;8.138;2023-05-07T11:24:10;99995.98;;;28.61
34023;BMP280;20673;48.980;8.138;2023-05-07T11:26:49;99992.65;;;29.35
34023;BMP280;20673;48.980;8.138;2023-05-07T11:29:21;99987.61;;;29.40
34023;BMP280;20673;48.980;8.138;2023-05-07T11:31:52;99981.66;;;28.79
34023;BMP280;20673;48.980;8.138;2023-05-07T11:34:23;99983.03;;;29.03
34023;BMP280;20673;48.980;8.138;2023-05-07T11:36:50;99979.59;;;29.20
34023;BMP280;20673;48.980;8.138;2023-05-07T11:39:32;99984.58;;;29.13
34023;BMP280;20673;48.980;8.138;2023-05-07T11:42:01;99982.11;;;28.99
34023;BMP280;20673;48.980;8.138;2023-05-07T11:44:45;99973.66;;;28.79
34023;BMP280;20673;48.980;8.138;2023-05-07T11:47:20;99972.25;;;28.89
34023;BMP280;20673;48.980;8.138;2023-05-07T11:49:49;99973.46;;;28.90
34023;BMP280;20673;48.980;8.138;2023-05-07T11:52:17;99969.54;;;28.85
34023;BMP280;20673;48.980;8.138;2023-05-07T11:54:56;99967.22;;;28.38
34023;BMP280;20673;48.980;8.138;2023-05-07T11:57:24;99965.72;;;28.15
34023;BMP280;20673;48.980;8.138;2023-05-07T11:59:58;99969.19;;;28.49
34023;BMP280;20673;48.980;8.138;2023-05-07T12:02:25;99963.17;;;28.25
34023;BMP280;20673;48.980;8.138;2023-05-07T12:04:52;99966.84;;;27.57
34023;BMP280;20673;48.980;8.138;2023-05-07T12:07:19;99959.98;;;27.33
34023;BMP280;20673;48.980;8.138;2023-05-07T12:09:45;99967.64;;;26.93
34023;BMP280;20673;48.980;8.138;2023-05-07T12:12:14;99965.11;;;26.81
34023;BMP280;20673;48.980;8.138;2023-05-07T12:14:45;99966.84;;;26.63
34023;BMP280;20673;48.980;8.138;2023-05-07T12:17:14;99973.04;;;26.52
34023;BMP280;20673;48.980;8.138;2023-05-07T12:19:43;99965.74;;;26.30
34023;BMP280;20673;48.980;8.138;2023-05-07T12:22:10;99971.37;;;26.03
34023;BMP280;20673;48.980;8.138;2023-05-07T12:24:48;99967.33;;;26.06
34023;BMP280;20673;48.980;8.138;2023-05-07T12:27:15;99965.75;;;26.03
34023;BMP280;20673;48.980;8.138;2023-05-07T12:29:50;99965.89;;;25.97
34023;BMP280;20673;48.980;8.138;2023-05-07T12:32:18;99962.79;;;25.96
34023;BMP280;20673;48.980;8.138;2023-05-07T12:34:46;99963.26;;;26.13
34023;BMP280;20673;48.980;8.138;2023-05-07T12:37:13;99962.40;;;26.25
34023;BMP280;20673;48.980;8.138;2023-05-07T12:40:08;99967.69;;;26.64
34023;BMP280;20673;48.980;8.138;2023-05-07T12:42:36;99965.45;;;27.02
34023;BMP280;20673;48.980;8.138;2023-05-07T12:45:15;99966.81;;;26.72
34023;BMP280;20673;48.980;8.138;2023-05-07T12:47:45;99967.16;;;26.58
34023;BMP280;20673;48.980;8.138;2023-05-07T12:50:15;99967.12;;;26.41
34023;BMP280;20673;48.980;8.138;2023-05-07T12:52:47;99969.81;;;26.16
34023;BMP280;20673;48.980;8.138;2023-05-07T12:55:17;99968.24;;;26.11
34023;BMP280;20673;48.980;8.138;2023-05-07T12:57:48;99967.25;;;26.02
34023;BMP280;20673;48.980;8.138;2023-05-07T13:00:17;99965.78;;;25.88
34023;BMP280;20673;48.980;8.138;2023-05-07T13:02:44;99966.81;;;26.01
34023;BMP280;20673;48.980;8.138;2023-05-07T13:05:11;99970.25;;;26.06
34023;BMP280;20673;48.980;8.138;2023-05-07T13:07:38;99973.97;;;26.00
34023;BMP280;20673;48.980;8.138;2023-05-07T13:10:05;99969.97;;;26.20
34023;BMP280;20673;48.980;8.138;2023-05-07T13:12:32;99976.61;;;26.38
34023;BMP280;20673;48.980;8.138;2023-05-07T13:14:58;99972.76;;;26.67
34023;BMP280;20673;48.980;8.138;2023-05-07T13:17:24;99967.54;;;26.92
34023;BMP280;20673;48.980;8.138;2023-05-07T13:19:51;99966.75;;;27.11
34023;BMP280;20673;48.980;8.138;2023-05-07T13:22:17;99966.68;;;27.12
34023;BMP280;20673;48.980;8.138;2023-05-07T13:24:43;99968.76;;;27.37
34023;BMP280;20673;48.980;8.138;2023-05-07T13:27:09;99967.25;;;27.19
34023;BMP280;20673;48.980;8.138;2023-05-07T13:29:35;99977.61;;;27.09
34023;BMP280;20673;48.980;8.138;2023-05-07T13:32:01;99980.09;;;26.93
34023;BMP280;20673;48.980;8.138;2023-05-07T13:34:28;99972.03;;;26.84
34023;BMP280;20673;48.980;8.138;2023-05-07T13:36:54;99968.65;;;26.76
34023;BMP280;20673;48.980;8.138;2023-05-07T13:39:21;99972.84;;;26.48
34023;BMP280;20673;48.980;8.138;2023-05-07T13:41:47;99968.87;;;26.33
34023;BMP280;20673;48.980;8.138;2023-05-07T13:44:13;99966.59;;;25.81
34023;BMP280;20673;48.980;8.138;2023-05-07T13:46:40;99970.20;;;25.54
34023;BMP280;20673;48.980;8.138;2023-05-07T13:49:06;99967.25;;;25.14
34023;BMP280;20673;48.980;8.138;2023-05-07T13:51:32;99973.83;;;24.68
34023;BMP280;20673;48.980;8.138;2023-05-07T13:53:58;99974.36;;;24.71
34023;BMP280;20673;48.980;8.138;2023-05-07T13:56:25;99973.59;;;24.46
34023;BMP280;20673;48.980;8.138;2023-05-07T13:58:51;99978.89;;;24.22
34023;BMP280;20673;48.980;8.138;2023-05-07T14:01:17;99988.94;;;24.05
34023;BMP280;20673;48.980;8.138;2023-05-07T14:03:44;99980.67;;;23.57
34023;BMP280;20673;48.980;8.138;2023-05-07T14:06:10;99978.64;;;23.26
34023;BMP280;20673;48.980;8.138;2023-05-07T14:08:36;99988.35;;;22.77
34023;BMP280;20673;48.980;8.138;2023-05-07T14:11:02;99992.97;;;22.78
34023;BMP280;20673;48.980;8.138;2023-05-07T14:13:29;99992.18;;;22.52
34023;BMP280;20673;48.980;8.138;2023-05-07T14:15:57;100001.07;;;22.51